Wales, AK

3:27 PM AKDT on June 29, 2015 (GMT -0800)
Tin City LRRS | | Change Station
CLOSE
Current Station
Airport
Location: Tin City,
Elevation: 272 ft
Nearby Weather Stations

Elev 272 ft 65.56 °N, 167.92 °W | Updated 19 minutes ago

Mostly Cloudy
Mostly Cloudy
41 °F
Feels Like 31 °F
N
24
Wind Variable Wind from SW

Today
High -- | Low -- °F
--% Chance of Precip.
Yesterday
High -- | Low -- °F
Precip. -- in
3:57 AM 2:29 AM
Waxing Gibbous, 95% visible
Pressure 29.80 in
Visibility 3.0 miles
Clouds Mostly Cloudy 200 ft
Windchill 31 °F
Dew Point 41 °F
Humidity 100%
Rainfall 0.10 in
Snow Depth Not available.
UV 4 out of 12
Pollen Not available.
Air Quality Not available.
Flu Activity Sporadic
SPECI PATC 292308Z AUTO 23021KT 3SM BR BKN002 05/05 A2979 RMK AO2 SLP091

More Conditions Fewer Conditions

Pressure 29.80 in
Visibility 3.0 miles
Clouds Mostly Cloudy 200 ft
Windchill 31 °F
Dew Point 41 °F
Humidity 100%
Rainfall 0.10 in
Snow Depth Not available.
UV 4 out of 12
Pollen Not available.
Air Quality Not available.
Flu Activity Sporadic
SPECI PATC 292308Z AUTO 23021KT 3SM BR BKN002 05/05 A2979 RMK AO2 SLP091

More Conditions Fewer Conditions

10-Day Weather Forecast

×

Almanac

Astronomy

Jun. 29, 2015 Rise Set
Actual Time
Civil Twilight
Nautical Twilight
Astronomical Twilight
Moon
Length of Visible Light
Length of Day
Tomorrow will be .
, % of the Moon is Illuminated

Today's Extremes

State Highs State Lows

Community

WunderPhotos

Upload Photos

1,833,881 photos uploaded!

WunderBlogs® & News

Nearby

Air Quality

  Air Quality AQ Index Pollutant
Not available.

Snow Depth

Station Depth Elevation

Earthquake Activity

City Distance Mag. Time & Date
Minimum magnitude displayed is 2.5.

Coastal Water Temperatures

Place Temperature

Stations

Nearby Weather Stations

Station Location Temp. Windchill Dew Point Humidity Wind Precip. Elev Updated Type